| Date | Time | Temp. (oF) | Dew Point (oF) | Rel. Hum. (%) | Press. (in.) | Wind Dir. | Wind Speed (mph) | Hourly Rainfall (in.) |
|
|---|---|---|---|---|---|---|---|---|---|
| 1 | 11/13 | 00:00 | 37 | 29 | 73 | 30.34 | NE | 1 | 0.00 |
| 2 | 11/12 | 23:00 | 36 | 27 | 72 | 30.35 | ESE | 1 | 0.00 |
| 3 | 11/12 | 22:00 | 37 | 27 | 69 | 30.37 | ESE | 1 | 0.00 |
| 4 | 11/12 | 21:00 | 37 | 27 | 67 | 30.37 | ENE | 1 | 0.00 |
| 5 | 11/12 | 20:00 | 37 | 26 | 65 | 30.37 | ENE | 1 | 0.00 |
| 6 | 11/12 | 19:00 | 37 | 25 | 64 | 30.37 | ENE | 1 | 0.00 |
| 7 | 11/12 | 18:00 | 38 | 23 | 55 | 30.36 | ESE | 1 | 0.00 |
| 8 | 11/12 | 17:00 | 41 | 23 | 49 | 30.35 | SE | 2 | 0.00 |
| 9 | 11/12 | 16:00 | 44 | 23 | 45 | 30.35 | ESE | 2 | 0.00 |
| 10 | 11/12 | 15:00 | 44 | 22 | 42 | 30.35 | SSE | 3 | 0.00 |
| 11 | 11/12 | 14:00 | 46 | 23 | 41 | 30.36 | SE | 5 | 0.00 |
| 12 | 11/12 | 13:00 | 42 | 21 | 43 | 30.38 | SSE | 4 | 0.00 |
| 13 | 11/12 | 12:00 | 41 | 20 | 44 | 30.41 | SSW | 5 | 0.00 |
| 14 | 11/12 | 11:00 | 38 | 22 | 53 | 30.44 | SW | 3 | 0.00 |
| 15 | 11/12 | 10:00 | 33 | 23 | 68 | 30.45 | SSE | 2 | 0.00 |
| 16 | 11/12 | 09:00 | 30 | 23 | 77 | 30.45 | ENE | 1 | 0.00 |
| 17 | 11/12 | 08:00 | 27 | 22 | 83 | 30.46 | ENE | 1 | 0.00 |
| 18 | 11/12 | 07:00 | 26 | 23 | 91 | 30.46 | ENE | 1 | 0.00 |
| 19 | 11/12 | 06:00 | 25 | 22 | 89 | 30.46 | ENE | 0 | 0.00 |
| 20 | 11/12 | 05:00 | 25 | 21 | 87 | 30.46 | ENE | 1 | 0.00 |
| 21 | 11/12 | 04:00 | 24 | 20 | 88 | 30.45 | SSE | 1 | 0.00 |
| 22 | 11/12 | 03:00 | 24 | 21 | 90 | 30.45 | SSE | 1 | 0.00 |
| 23 | 11/12 | 02:00 | 23 | 21 | 92 | 30.47 | SSE | 0 | 0.00 |
| 24 | 11/12 | 01:00 | 22 | 20 | 92 | 30.46 | SSE | 1 | 0.00 |